Time;durP1;ratioP1;P1;durP2;ratioP2;P2;SDS_P1;SDS_P2;PMS_P1;PMS_P2;Temp;Humidity;BMP_temperature;BMP_pressure;BME280_temperature;BME280_humidity;BME280_pressure;Samples;Min_cycle;Max_cycle;Signal;HPM_P1;HPM_P2
2022/07/23 00:00:04;;;;;;;10.40;6.40;;;;;;;23.63;52.85;97908.00;5013143;28;20413;-78
2022/07/23 00:02:33;;;;;;;9.70;6.65;;;;;;;23.52;52.55;97900.47;4996867;28;20909;-77
2022/07/23 00:05:02;;;;;;;10.90;6.73;;;;;;;23.42;54.86;97917.88;5000158;28;20424;-79
2022/07/23 00:07:31;;;;;;;10.38;6.25;;;;;;;23.41;54.22;97929.38;5007505;28;20456;-79
2022/07/23 00:10:00;;;;;;;8.98;6.60;;;;;;;23.33;53.94;97923.06;5008260;28;20898;-78
2022/07/23 00:12:28;;;;;;;10.88;6.57;;;;;;;23.29;53.83;97927.00;4999783;28;20466;-78
2022/07/23 00:14:56;;;;;;;9.02;6.70;;;;;;;23.16;55.17;97926.59;5012235;28;20906;-79
2022/07/23 00:17:25;;;;;;;14.27;7.22;;;;;;;23.21;54.05;97915.91;5006318;28;20877;-79
2022/07/23 00:19:54;;;;;;;11.05;6.82;;;;;;;23.03;55.58;97919.84;5014194;28;20416;-79
2022/07/23 00:22:22;;;;;;;10.18;6.32;;;;;;;23.04;55.19;97913.91;5001461;28;20493;-78
2022/07/23 00:25:17;;;;;;;10.98;7.07;;;;;;;23.03;55.34;97903.22;5003684;28;20408;-78
2022/07/23 00:28:02;;;;;;;11.27;7.57;;;;;;;22.91;55.71;97896.88;5005725;28;20426;-78
2022/07/23 00:30:32;;;;;;;10.63;6.53;;;;;;;23.11;57.70;97902.81;4999953;28;21017;-79
2022/07/23 00:33:26;;;;;;;11.38;7.15;;;;;;;23.12;57.10;97906.41;5014989;28;20419;-78
2022/07/23 00:35:56;;;;;;;10.65;7.18;;;;;;;22.72;56.45;97898.00;4997973;28;20773;-77
2022/07/23 00:38:25;;;;;;;10.17;6.97;;;;;;;22.74;55.83;97898.41;4994306;28;20419;-78
2022/07/23 00:40:55;;;;;;;10.10;6.60;;;;;;;22.73;56.45;97888.50;5012538;28;20413;-77
2022/07/23 00:43:25;;;;;;;13.35;7.05;;;;;;;22.64;57.86;97896.41;5002894;28;20412;-78
2022/07/23 00:45:54;;;;;;;10.50;7.18;;;;;;;22.80;59.20;97901.59;4989582;28;20416;-78
2022/07/23 00:48:22;;;;;;;11.00;6.33;;;;;;;22.55;58.22;97884.09;5011773;28;20826;-78
2022/07/23 00:50:51;;;;;;;11.50;6.88;;;;;;;22.52;56.99;97868.25;5017816;28;20430;-78
2022/07/23 00:53:20;;;;;;;12.02;6.85;;;;;;;22.47;57.77;97873.00;5011521;28;20776;-78
2022/07/23 00:55:49;;;;;;;11.13;6.35;;;;;;;22.75;57.91;97886.13;5011826;28;20424;-77
2022/07/23 00:58:19;;;;;;;9.43;6.30;;;;;;;22.49;56.90;97867.09;5003021;28;20826;-77
2022/07/23 01:00:48;;;;;;;11.13;6.63;;;;;;;22.36;58.96;97883.25;5011893;28;20429;-78
2022/07/23 01:03:16;;;;;;;9.35;6.53;;;;;;;22.47;59.05;97892.38;4996354;28;20916;-78
2022/07/23 01:05:45;;;;;;;13.07;6.80;;;;;;;22.32;57.54;97889.94;4994191;28;20859;-78
2022/07/23 01:08:13;;;;;;;10.40;6.78;;;;;;;22.28;57.53;97895.47;4989323;28;20788;-78
2022/07/23 01:10:41;;;;;;;10.93;7.33;;;;;;;22.21;59.40;97878.81;5000601;28;20409;-77
2022/07/23 01:13:11;;;;;;;12.05;7.15;;;;;;;22.27;57.44;97879.28;5014360;28;20419;-78
2022/07/23 01:15:41;;;;;;;12.40;6.75;;;;;;;22.24;57.89;97886.38;5017880;28;20419;-77
2022/07/23 01:18:10;;;;;;;10.60;6.82;;;;;;;22.17;58.50;97886.34;5006058;28;20425;-78
2022/07/23 01:20:39;;;;;;;10.88;7.20;;;;;;;22.17;58.46;97880.81;4976332;28;20736;-79
2022/07/23 01:23:35;;;;;;;10.23;7.38;;;;;;;22.39;58.27;97884.44;5005208;28;20420;-78
2022/07/23 01:26:08;;;;;;;10.23;7.25;;;;;;;22.33;57.38;97881.25;4990822;28;20419;-78
2022/07/23 01:28:39;;;;;;;12.38;7.70;;;;;;;22.35;57.80;97878.88;5002333;28;20432;-78
2022/07/23 01:31:09;;;;;;;11.32;7.93;;;;;;;22.53;58.19;97880.91;5006454;28;20416;-78
2022/07/23 01:33:38;;;;;;;12.25;7.20;;;;;;;22.49;58.39;97880.94;4998900;28;20436;-78
2022/07/23 01:36:07;;;;;;;11.05;7.32;;;;;;;22.45;58.57;97880.13;5001682;28;20413;-78
2022/07/23 01:38:37;;;;;;;11.00;6.85;;;;;;;22.40;58.66;97880.50;5007276;28;20415;-78
2022/07/23 01:41:11;;;;;;;9.88;7.32;;;;;;;22.36;59.00;97885.22;4995613;28;20772;-79
2022/07/23 01:43:41;;;;;;;11.00;7.53;;;;;;;22.17;60.38;97897.41;5001434;28;20417;-77
2022/07/23 01:46:10;;;;;;;13.98;7.38;;;;;;;22.14;59.67;97900.94;5009836;28;20405;-78
2022/07/23 01:48:43;;;;;;;12.15;7.53;;;;;;;22.25;60.12;97906.53;4995109;28;20443;-78
2022/07/23 01:51:26;;;;;;;12.07;7.22;;;;;;;22.28;59.39;97905.75;5002904;28;20407;-77
2022/07/23 01:54:05;;;;;;;12.00;7.15;;;;;;;22.29;59.82;97918.41;5017466;28;20408;-79
2022/07/23 01:56:38;;;;;;;11.57;7.03;;;;;;;22.27;59.05;97921.56;5022590;28;20432;-78
2022/07/23 01:59:06;;;;;;;13.07;7.00;;;;;;;22.26;58.83;97925.50;5010120;28;20786;-79
2022/07/23 02:01:35;;;;;;;11.18;7.28;;;;;;;22.30;58.51;97929.09;5003674;28;20429;-79
2022/07/23 02:04:04;;;;;;;11.00;6.75;;;;;;;22.29;57.39;97918.41;4998779;28;20419;-79
2022/07/23 02:06:32;;;;;;;10.40;6.73;;;;;;;22.32;57.66;97915.66;5000030;28;20428;-78
2022/07/23 02:09:01;;;;;;;12.45;7.13;;;;;;;22.26;58.05;97919.16;4984767;28;20437;-78
2022/07/23 02:11:31;;;;;;;10.88;6.68;;;;;;;22.26;57.81;97908.88;5017150;28;20413;-80
2022/07/23 02:13:59;;;;;;;10.55;7.28;;;;;;;22.20;57.80;97916.78;4984700;28;20913;-78
2022/07/23 02:16:27;;;;;;;10.52;7.03;;;;;;;22.14;57.12;97907.25;5024147;28;20433;-78
2022/07/23 02:19:27;;;;;;;11.25;7.35;;;;;;;22.13;57.61;97910.44;5002467;28;20420;-78
2022/07/23 02:22:21;;;;;;;12.03;6.70;;;;;;;22.16;57.53;97912.44;5010580;28;20458;-79
2022/07/23 02:25:16;;;;;;;10.55;7.05;;;;;;;22.20;57.03;97902.16;5012644;28;20416;-79
2022/07/23 02:27:47;;;;;;;10.35;6.75;;;;;;;22.17;57.40;97897.41;5006518;28;20806;-79
2022/07/23 02:30:15;;;;;;;11.90;7.10;;;;;;;22.21;56.82;97885.19;5012427;28;20427;-79
2022/07/23 02:32:43;;;;;;;11.07;6.97;;;;;;;22.27;56.86;97884.81;4986688;28;20399;-78
2022/07/23 02:35:18;;;;;;;12.60;7.20;;;;;;;22.25;57.23;97879.63;4995626;28;20427;-79
2022/07/23 02:37:46;;;;;;;9.90;7.13;;;;;;;22.26;56.92;97880.44;5004725;28;20409;-78
2022/07/23 02:40:18;;;;;;;11.60;7.10;;;;;;;22.24;57.84;97883.59;5015214;28;20420;-78
2022/07/23 02:42:48;;;;;;;12.20;7.00;;;;;;;22.20;58.37;97899.38;5019609;28;20420;-78
2022/07/23 02:45:16;;;;;;;11.77;7.45;;;;;;;22.09;58.67;97895.75;4993089;28;20404;-79
2022/07/23 02:47:44;;;;;;;12.02;7.50;;;;;;;22.09;58.38;97898.50;5005115;28;20428;-78
2022/07/23 02:50:12;;;;;;;12.13;7.50;;;;;;;22.09;57.86;97893.78;5021224;28;20784;-78
2022/07/23 02:52:41;;;;;;;11.15;6.93;;;;;;;22.06;58.06;97886.25;5002512;28;20941;-79
2022/07/23 02:55:09;;;;;;;11.18;7.25;;;;;;;22.05;58.02;97873.63;5019283;28;20409;-78
2022/07/23 02:57:38;;;;;;;11.67;7.23;;;;;;;21.99;58.36;97880.69;4997740;28;20415;-78
2022/07/23 03:00:09;;;;;;;10.10;6.70;;;;;;;21.98;58.74;97877.13;5012837;28;20412;-79
2022/07/23 03:02:37;;;;;;;11.32;6.70;;;;;;;22.03;58.16;97878.72;4999841;28;20411;-79
2022/07/23 03:05:06;;;;;;;9.68;7.35;;;;;;;21.97;58.04;97888.56;5003608;28;20428;-78
2022/07/23 03:07:36;;;;;;;10.63;7.30;;;;;;;21.84;58.66;97890.88;5007583;28;20411;-78
2022/07/23 03:10:05;;;;;;;9.45;7.18;;;;;;;21.80;58.23;97879.00;5007153;28;20425;-78
2022/07/23 03:12:33;;;;;;;12.48;8.10;;;;;;;21.88;58.70;97890.88;5010164;28;20421;-79
2022/07/23 03:15:04;;;;;;;11.32;7.57;;;;;;;21.84;58.33;97885.34;5007031;28;20500;-79
2022/07/23 03:17:34;;;;;;;11.60;7.43;;;;;;;21.81;58.75;97894.41;4998627;28;20408;-78
2022/07/23 03:20:04;;;;;;;10.77;7.07;;;;;;;21.65;59.58;97891.16;5012205;28;20759;-78
2022/07/23 03:22:32;;;;;;;11.60;7.10;;;;;;;21.71;59.08;97906.19;5016410;28;20413;-77
2022/07/23 03:25:51;;;;;;;11.38;7.55;;;;;;;21.70;58.62;97901.84;5012890;28;20424;-78
2022/07/23 03:28:23;;;;;;;12.23;7.72;;;;;;;21.63;59.86;97893.53;4998937;28;20411;-79
2022/07/23 03:30:52;;;;;;;10.70;7.63;;;;;;;21.56;59.68;97896.22;5013348;28;20756;-79
2022/07/23 03:33:24;;;;;;;11.07;7.28;;;;;;;21.51;59.75;97885.50;4984676;28;20413;-78
2022/07/23 03:35:54;;;;;;;13.95;8.13;;;;;;;21.51;59.52;97891.03;5011244;28;20406;-78
2022/07/23 03:38:26;;;;;;;12.95;7.50;;;;;;;21.43;60.50;97896.53;4996107;28;20407;-79
2022/07/23 03:40:55;;;;;;;13.00;7.80;;;;;;;21.49;59.43;97893.41;4999038;28;20899;-78
2022/07/23 03:43:24;;;;;;;12.27;7.43;;;;;;;21.35;59.72;97883.81;5002695;28;20410;-77
2022/07/23 03:45:52;;;;;;;11.23;7.50;;;;;;;21.36;59.88;97890.97;4993812;28;20429;-78
2022/07/23 03:48:20;;;;;;;10.68;7.47;;;;;;;21.35;59.84;97886.59;5021514;28;20417;-78
2022/07/23 03:50:52;;;;;;;12.63;7.63;;;;;;;21.29;60.19;97898.34;4996998;28;20492;-79
2022/07/23 03:53:20;;;;;;;13.52;7.18;;;;;;;21.29;59.83;97901.13;5007090;28;20927;-79
2022/07/23 03:55:48;;;;;;;12.23;7.90;;;;;;;21.22;60.45;97901.06;5000104;28;20427;-78
2022/07/23 03:58:17;;;;;;;11.93;7.38;;;;;;;21.21;60.12;97899.47;5011658;28;20477;-79
2022/07/23 04:00:45;;;;;;;11.45;7.82;;;;;;;21.15;61.10;97908.13;5018038;28;20417;-80
2022/07/23 04:03:13;;;;;;;11.97;7.63;;;;;;;21.13;60.20;97915.19;5027808;28;20428;-80
2022/07/23 04:05:43;;;;;;;11.10;6.85;;;;;;;21.11;60.77;97917.53;5009243;28;20914;-79
2022/07/23 04:08:15;;;;;;;13.50;8.00;;;;;;;21.19;60.08;97924.72;5015332;28;20851;-79
2022/07/23 04:10:50;;;;;;;11.40;7.30;;;;;;;21.15;60.00;97916.41;4999743;28;20429;-78
2022/07/23 04:13:19;;;;;;;13.00;7.45;;;;;;;21.16;60.25;97919.97;5026907;28;21561;-78
2022/07/23 04:15:48;;;;;;;10.32;7.20;;;;;;;21.09;60.15;97919.88;5027556;28;20422;-79
2022/07/23 04:18:18;;;;;;;11.02;6.90;;;;;;;21.13;60.28;97927.03;5027766;28;21019;-78
2022/07/23 04:20:54;;;;;;;11.53;7.30;;;;;;;21.05;60.64;97913.53;5007097;28;20431;-78
2022/07/23 04:23:26;;;;;;;12.00;7.20;;;;;;;21.15;61.40;97919.16;5028258;28;20427;-78
2022/07/23 04:25:55;;;;;;;11.02;7.03;;;;;;;21.04;61.27;97922.97;5009636;28;20427;-78
2022/07/23 04:28:24;;;;;;;9.52;6.88;;;;;;;21.07;60.60;97927.75;5012718;28;20409;-79
2022/07/23 04:30:53;;;;;;;10.70;7.05;;;;;;;21.12;61.10;97932.94;5026230;28;20428;-79
2022/07/23 04:33:24;;;;;;;11.30;7.40;;;;;;;21.12;60.24;97925.44;5008997;28;20517;-78
2022/07/23 04:35:56;;;;;;;10.50;7.20;;;;;;;21.13;60.32;97924.25;4992779;28;20423;-77
2022/07/23 04:38:26;;;;;;;11.80;6.82;;;;;;;21.12;60.13;97927.41;5013912;28;20957;-81
2022/07/23 04:40:59;;;;;;;9.95;7.00;;;;;;;21.16;60.16;97936.53;5024695;28;20428;-80
2022/07/23 04:43:27;;;;;;;9.45;7.00;;;;;;;21.16;59.93;97934.56;5009242;28;20429;-79
2022/07/23 04:45:56;;;;;;;10.73;6.70;;;;;;;21.25;59.42;97942.53;5009975;28;20435;-80
2022/07/23 04:48:25;;;;;;;10.13;6.95;;;;;;;21.20;59.75;97934.59;5025915;28;20980;-81
2022/07/23 04:51:07;;;;;;;11.57;6.57;;;;;;;21.29;59.29;97937.81;5014998;28;20431;-82
2022/07/23 04:53:39;;;;;;;9.95;6.45;;;;;;;21.30;59.48;97931.16;4993752;28;20425;-80
2022/07/23 04:56:08;;;;;;;10.85;6.22;;;;;;;21.34;59.16;97923.69;5012033;28;20421;-80
2022/07/23 04:58:39;;;;;;;8.98;6.10;;;;;;;21.36;59.07;97928.81;5010723;28;20417;-80
2022/07/23 05:01:07;;;;;;;10.23;6.35;;;;;;;21.50;58.56;97930.94;5000325;28;20490;-79
2022/07/23 05:03:37;;;;;;;8.80;6.00;;;;;;;21.50;58.79;97928.16;5011080;28;20421;-79
2022/07/23 05:06:09;;;;;;;10.13;6.07;;;;;;;21.54;58.76;97926.22;5009450;28;20411;-80
2022/07/23 05:08:39;;;;;;;9.27;6.20;;;;;;;21.59;58.05;97921.13;5008538;28;20428;-78
2022/07/23 05:11:07;;;;;;;8.95;5.78;;;;;;;21.59;57.91;97926.66;5007208;28;20422;-78
2022/07/23 05:13:36;;;;;;;10.97;5.97;;;;;;;21.58;58.53;97922.31;5005964;28;20427;-80
2022/07/23 05:16:07;;;;;;;8.82;5.38;;;;;;;21.59;58.27;97928.63;4995206;28;20407;-80
2022/07/23 05:18:37;;;;;;;10.07;5.72;;;;;;;21.66;58.08;97934.22;5002169;28;20434;-80
2022/07/23 05:21:06;;;;;;;11.45;5.72;;;;;;;21.72;57.66;97929.91;5007368;28;20478;-80
2022/07/23 05:23:35;;;;;;;9.13;5.28;;;;;;;21.81;57.18;97933.13;4991156;28;20421;-79
2022/07/23 05:26:07;;;;;;;8.43;4.83;;;;;;;21.89;57.08;97943.06;5010950;28;20408;-80
2022/07/23 05:28:38;;;;;;;8.80;5.28;;;;;;;21.92;57.02;97942.28;5006728;28;20439;-81
2022/07/23 05:31:07;;;;;;;8.50;5.10;;;;;;;22.02;56.62;97948.28;5006107;28;20787;-81
2022/07/23 05:33:36;;;;;;;6.47;4.63;;;;;;;22.08;56.45;97952.25;5003871;28;20496;-80
2022/07/23 05:36:09;;;;;;;7.37;4.77;;;;;;;22.13;56.09;97943.63;5004591;28;20991;-80
2022/07/23 05:38:45;;;;;;;7.93;4.60;;;;;;;22.15;56.30;97935.72;5008581;28;20417;-82
2022/07/23 05:41:14;;;;;;;7.47;4.78;;;;;;;22.27;55.39;97952.00;5015951;28;20420;-81
2022/07/23 05:43:43;;;;;;;6.75;4.38;;;;;;;22.34;55.81;97952.03;5012901;28;20435;-83
2022/07/23 05:46:15;;;;;;;7.50;4.70;;;;;;;22.42;55.35;97947.31;5010181;28;20424;-83
2022/07/23 05:48:49;;;;;;;6.60;4.03;;;;;;;22.54;55.07;97955.31;5007898;28;20418;-82
2022/07/23 05:51:44;;;;;;;7.60;4.17;;;;;;;22.69;55.13;97965.25;5002691;28;20430;-80
2022/07/23 05:54:15;;;;;;;7.20;4.25;;;;;;;22.83;54.95;97969.25;5007098;28;20417;-79
2022/07/23 05:56:44;;;;;;;6.82;4.15;;;;;;;22.93;54.23;97963.75;5007650;28;20790;-83
2022/07/23 05:59:14;;;;;;;6.82;4.25;;;;;;;23.04;53.47;97972.09;5006736;28;20443;-81
2022/07/23 06:01:43;;;;;;;6.72;4.00;;;;;;;23.04;53.37;97974.88;5008904;28;20434;-80
2022/07/23 06:04:14;;;;;;;5.82;3.78;;;;;;;23.05;53.68;97972.88;5032254;28;21021;-82
2022/07/23 06:06:52;;;;;;;6.78;4.25;;;;;;;23.08;53.72;97985.97;5032140;28;20521;-80
2022/07/23 06:09:20;;;;;;;7.43;3.60;;;;;;;23.05;53.27;97987.53;5021752;28;20484;-79
2022/07/23 06:11:49;;;;;;;8.55;5.07;;;;;;;23.09;52.64;97998.63;5032036;28;20519;-80
2022/07/23 06:14:18;;;;;;;7.05;4.25;;;;;;;23.08;53.16;97994.28;5015908;28;20417;-86
2022/07/23 06:16:52;;;;;;;6.50;4.00;;;;;;;23.17;53.08;97994.69;5012390;28;20425;-83
2022/07/23 06:19:21;;;;;;;6.70;4.00;;;;;;;23.23;52.59;97993.91;5012372;28;20926;-84
2022/07/23 06:21:53;;;;;;;6.05;3.55;;;;;;;23.33;51.86;97997.91;5003334;28;20420;-80
2022/07/23 06:24:21;;;;;;;5.50;3.60;;;;;;;23.34;51.29;97985.63;5023735;28;20416;-76
2022/07/23 06:26:52;;;;;;;6.30;3.70;;;;;;;23.42;51.42;97994.72;5026074;28;20436;-81
2022/07/23 06:29:20;;;;;;;5.63;3.60;;;;;;;23.38;50.52;97991.94;4996673;28;20418;-83
2022/07/23 06:31:49;;;;;;;7.20;3.83;;;;;;;23.42;50.72;97989.97;5006702;28;20420;-89
2022/07/23 06:34:17;;;;;;;6.87;3.77;;;;;;;23.50;50.83;97991.56;5015396;28;20454;-84
2022/07/23 06:36:46;;;;;;;7.45;3.85;;;;;;;23.48;49.69;97996.72;5017762;28;20432;-85
2022/07/23 06:39:38;;;;;;;6.47;3.73;;;;;;;23.49;49.59;98006.63;5014223;28;20845;-89
2022/07/23 06:42:11;;;;;;;9.45;4.40;;;;;;;23.55;49.43;98004.25;5018642;28;20417;-88
2022/07/23 06:44:44;;;;;;;6.68;3.75;;;;;;;23.64;50.15;98007.44;4999576;28;20511;-88
2022/07/23 06:47:21;;;;;;;6.60;3.63;;;;;;;23.71;49.16;98009.44;4996280;28;20507;-89
2022/07/23 06:49:50;;;;;;;6.43;4.13;;;;;;;23.75;49.22;98024.09;5018872;28;20483;-86
2022/07/23 06:52:18;;;;;;;5.45;3.75;;;;;;;23.91;48.66;98018.94;5025010;28;20505;-88
2022/07/23 06:54:46;;;;;;;5.80;3.78;;;;;;;24.05;48.78;98020.91;4987294;28;20973;-84
2022/07/23 06:57:16;;;;;;;6.22;3.80;;;;;;;24.24;48.50;98023.28;5001613;28;20476;-86
2022/07/23 06:59:45;;;;;;;8.38;3.88;;;;;;;24.31;47.92;98019.69;5006924;28;20880;-90
2022/07/23 07:02:15;;;;;;;6.88;4.00;;;;;;;24.29;47.51;98016.53;5010374;28;20480;-90
2022/07/23 07:04:44;;;;;;;8.02;4.15;;;;;;;24.25;47.40;98024.88;5017269;28;20437;-88
2022/07/23 07:07:13;;;;;;;6.00;4.15;;;;;;;24.30;47.84;98032.00;4996677;28;20409;-91
2022/07/23 07:09:41;;;;;;;7.63;4.40;;;;;;;24.25;47.36;98027.63;4996747;28;20455;-90
2022/07/23 07:12:11;;;;;;;6.35;4.32;;;;;;;24.18;47.68;98016.56;5016593;28;20436;-90
2022/07/23 07:15:07;;;;;;;6.93;3.88;;;;;;;24.21;47.81;98023.28;5012827;28;20464;-91
2022/07/23 07:17:37;;;;;;;7.05;4.20;;;;;;;24.13;47.91;98032.78;4998235;28;20444;-91
2022/07/23 07:20:07;;;;;;;7.07;4.60;;;;;;;24.12;48.00;98025.66;5006956;28;21047;-92
2022/07/23 07:22:36;;;;;;;6.57;4.57;;;;;;;24.17;48.34;98037.16;4991587;28;20555;-89
2022/07/23 07:25:55;;;;;;;7.95;4.70;;;;;;;24.22;48.40;98044.28;5005325;28;20506;-93
2022/07/23 07:28:39;;;;;;;8.20;4.55;;;;;;;24.20;48.12;98050.25;5002675;28;20500;-86
2022/07/23 07:31:08;;;;;;;7.90;4.72;;;;;;;24.12;48.46;98053.41;5018219;28;20432;-90
2022/07/23 07:33:40;;;;;;;6.22;4.53;;;;;;;24.20;48.28;98058.56;4997907;28;20569;-86
2022/07/23 07:36:09;;;;;;;7.53;4.90;;;;;;;24.25;48.43;98074.03;4978560;28;20930;-89
2022/07/23 07:38:42;;;;;;;9.65;5.00;;;;;;;24.12;48.13;98070.06;4996782;28;21029;-84
2022/07/23 07:41:10;;;;;;;10.25;5.28;;;;;;;24.13;48.04;98060.56;4995153;28;20912;-83
2022/07/23 07:43:39;;;;;;;6.93;4.63;;;;;;;24.24;48.19;98076.03;5008156;28;20431;-83
2022/07/23 07:46:10;;;;;;;7.78;4.55;;;;;;;24.23;48.06;98087.50;5009537;28;20468;-83
2022/07/23 07:48:39;;;;;;;7.35;4.80;;;;;;;24.25;47.73;98091.50;5006332;28;20423;-85
2022/07/23 07:51:08;;;;;;;7.95;4.40;;;;;;;24.13;48.62;98094.69;5005923;28;20538;-84
2022/07/23 07:53:36;;;;;;;10.10;4.70;;;;;;;23.97;49.06;98086.75;5007974;28;20936;-83
2022/07/23 07:56:09;;;;;;;14.10;5.57;;;;;;;23.91;53.83;98104.16;5004213;28;20424;-84
2022/07/23 07:58:39;;;;;;;9.55;5.65;;;;;;;23.73;57.82;98109.69;5006759;28;20433;-85
2022/07/23 08:01:10;;;;;;;8.80;5.00;;;;;;;23.33;57.16;98114.34;4994512;28;20420;-83
2022/07/23 08:03:39;;;;;;;8.88;5.30;;;;;;;23.16;57.86;98115.84;5003428;28;20428;-83
2022/07/23 08:06:07;;;;;;;7.25;5.10;;;;;;;23.00;57.50;98113.38;5010167;28;20507;-83
2022/07/23 08:08:36;;;;;;;8.00;5.00;;;;;;;22.99;57.20;98117.34;5009499;28;20425;-83
2022/07/23 08:11:08;;;;;;;9.75;5.28;;;;;;;22.92;57.92;98111.78;5003391;28;20422;-83
2022/07/23 08:13:37;;;;;;;8.82;4.93;;;;;;;22.87;57.56;98106.56;5007650;28;20437;-83
2022/07/23 08:16:06;;;;;;;7.68;4.90;;;;;;;22.81;56.03;98110.91;5009809;28;20502;-82
2022/07/23 08:18:39;;;;;;;9.37;5.37;;;;;;;22.83;58.45;98118.81;5006142;28;20488;-83
2022/07/23 08:21:08;;;;;;;8.32;5.05;;;;;;;22.86;57.93;98112.50;5010548;28;20440;-86
2022/07/23 08:23:40;;;;;;;8.43;5.00;;;;;;;22.86;57.24;98102.22;4993550;28;20446;-84
2022/07/23 08:26:08;;;;;;;9.13;5.53;;;;;;;23.03;56.70;98111.03;4991586;28;20922;-83
2022/07/23 08:28:37;;;;;;;8.15;5.40;;;;;;;23.21;57.79;98111.88;5009502;28;20451;-83
2022/07/23 08:31:06;;;;;;;8.27;5.32;;;;;;;23.27;58.33;98110.31;5008680;28;20420;-83
2022/07/23 08:33:37;;;;;;;8.63;5.30;;;;;;;23.16;57.86;98104.75;5006678;28;20436;-83
2022/07/23 08:36:10;;;;;;;11.97;5.23;;;;;;;23.18;56.40;98107.16;4993217;28;20796;-87
2022/07/23 08:38:38;;;;;;;9.30;5.55;;;;;;;23.14;55.71;98104.34;5006090;28;20440;-86
2022/07/23 08:41:08;;;;;;;9.10;5.55;;;;;;;23.12;55.14;98122.56;4986625;28;20810;-86
2022/07/23 08:43:40;;;;;;;11.15;5.05;;;;;;;23.02;55.47;98129.66;5007570;28;20417;-83
2022/07/23 08:46:09;;;;;;;8.13;5.07;;;;;;;22.94;55.10;98137.09;5013249;28;20415;-88
2022/07/23 08:48:39;;;;;;;11.02;5.35;;;;;;;22.90;58.04;98141.03;4991538;28;20415;-85
2022/07/23 08:51:10;;;;;;;9.75;5.63;;;;;;;22.87;57.81;98153.66;5007908;28;20404;-83
2022/07/23 08:53:39;;;;;;;7.45;5.30;;;;;;;22.81;57.20;98155.22;4996012;28;20429;-83
2022/07/23 08:56:07;;;;;;;9.80;5.00;;;;;;;22.70;57.33;98173.75;5008891;28;20435;-86
2022/07/23 08:58:37;;;;;;;7.77;4.67;;;;;;;22.64;56.02;98173.31;5011328;28;20424;-88
2022/07/23 09:01:06;;;;;;;7.00;4.10;;;;;;;22.45;55.88;98173.56;4996263;28;20417;-85
2022/07/23 09:03:38;;;;;;;8.73;4.50;;;;;;;22.37;57.43;98177.44;4995088;28;20419;-88
2022/07/23 09:06:08;;;;;;;8.20;4.50;;;;;;;22.29;57.86;98179.34;4997970;28;20482;-87
2022/07/23 09:08:40;;;;;;;8.43;4.20;;;;;;;22.32;58.94;98184.13;4992129;28;20403;-86
2022/07/23 09:11:10;;;;;;;7.70;4.20;;;;;;;22.04;59.85;98183.84;5012002;28;20419;-85
2022/07/23 09:13:41;;;;;;;7.88;4.50;;;;;;;22.02;61.28;98197.25;5010823;28;20424;-83
2022/07/23 09:16:12;;;;;;;8.65;4.32;;;;;;;21.90;62.06;98204.66;5011772;28;20419;-82
2022/07/23 09:18:46;;;;;;;7.70;4.47;;;;;;;21.91;62.92;98214.53;5010754;28;20419;-83
2022/07/23 09:21:19;;;;;;;7.78;4.25;;;;;;;21.91;62.84;98222.03;5010285;28;20477;-86
2022/07/23 09:23:51;;;;;;;9.43;4.15;;;;;;;21.96;61.34;98228.03;5009466;28;20780;-85
2022/07/23 09:26:25;;;;;;;7.20;3.85;;;;;;;21.90;61.43;98224.03;5004783;28;20406;-83
2022/07/23 09:28:56;;;;;;;6.85;3.75;;;;;;;21.91;61.59;98225.59;5009640;28;20413;-87
2022/07/23 09:31:26;;;;;;;7.27;3.70;;;;;;;21.89;61.10;98222.44;5011146;28;20427;-85
2022/07/23 09:34:08;;;;;;;5.43;3.80;;;;;;;21.80;61.87;98226.66;4995137;28;20480;-85
2022/07/23 09:36:42;;;;;;;7.47;3.70;;;;;;;21.81;60.47;98219.97;5018552;28;20416;-84
2022/07/23 09:39:11;;;;;;;6.60;3.77;;;;;;;21.74;61.30;98214.34;5009844;28;21103;-84
2022/07/23 09:41:42;;;;;;;6.70;3.70;;;;;;;21.80;60.97;98226.66;5026548;28;20416;-83
2022/07/23 09:44:14;;;;;;;5.73;3.30;;;;;;;21.73;60.62;98229.34;5010445;28;20412;-83
2022/07/23 09:46:44;;;;;;;5.95;3.50;;;;;;;21.66;61.11;98213.47;4997124;28;20427;-83
2022/07/23 09:49:17;;;;;;;6.60;3.77;;;;;;;21.57;61.39;98194.41;5006442;28;20423;-82
2022/07/23 09:51:50;;;;;;;10.43;4.20;;;;;;;21.50;63.92;98210.91;5012253;28;20419;-82
2022/07/23 09:54:30;;;;;;;6.88;4.13;;;;;;;21.41;64.61;98213.97;5004220;28;20478;-83
2022/07/23 09:57:00;;;;;;;7.67;4.23;;;;;;;21.31;64.26;98202.78;5011698;28;20419;-82
2022/07/23 09:59:30;;;;;;;6.47;3.70;;;;;;;21.33;64.13;98209.50;4999873;28;20413;-83
2022/07/23 10:02:00;;;;;;;8.52;3.75;;;;;;;21.22;64.10;98211.31;5001265;28;20410;-82
2022/07/23 10:04:33;;;;;;;7.70;3.93;;;;;;;21.08;64.09;98200.84;4981248;28;20422;-82
2022/07/23 10:07:18;;;;;;;7.95;4.28;;;;;;;21.12;64.68;98200.91;5000853;28;20415;-82
2022/07/23 10:10:06;;;;;;;9.00;4.23;;;;;;;21.09;66.58;98208.00;5020948;28;20399;-82
2022/07/23 10:13:23;;;;;;;7.32;4.03;;;;;;;21.14;64.73;98209.59;5014345;28;20429;-83
2022/07/23 10:15:52;;;;;;;8.50;4.45;;;;;;;21.18;66.00;98205.72;4990192;28;20425;-82
2022/07/23 10:18:21;;;;;;;8.35;4.60;;;;;;;21.07;65.57;98215.84;5002696;28;20419;-82
2022/07/23 10:20:50;;;;;;;8.05;4.43;;;;;;;20.90;65.92;98217.19;4998093;28;20412;-82
2022/07/23 10:23:24;;;;;;;8.57;4.80;;;;;;;20.85;66.35;98184.34;5019024;28;20406;-82
2022/07/23 10:25:58;;;;;;;8.38;4.57;;;;;;;20.98;65.07;98187.69;4991508;28;20435;-82
2022/07/23 10:28:42;;;;;;;7.13;4.25;;;;;;;21.06;64.50;98192.16;5011599;28;20419;-82
2022/07/23 10:31:18;;;;;;;8.50;4.68;;;;;;;21.04;65.93;98188.16;5019510;28;20409;-83
2022/07/23 10:34:13;;;;;;;9.25;4.50;;;;;;;21.02;65.47;98182.22;4981644;28;20441;-83
2022/07/23 10:36:47;;;;;;;6.15;4.25;;;;;;;21.06;66.45;98180.31;4987845;28;20476;-85
2022/07/23 10:39:41;;;;;;;7.70;4.78;;;;;;;21.00;67.78;98179.03;5003897;28;20419;-85
2022/07/23 10:42:12;;;;;;;8.80;4.87;;;;;;;21.13;67.52;98174.88;5010563;28;20418;-83
2022/07/23 10:44:43;;;;;;;7.05;4.60;;;;;;;21.13;65.38;98180.41;4992889;28;20407;-83
2022/07/23 10:50:19;;;;;;;9.33;4.57;;;;;;;21.12;66.92;98185.13;4988041;28;20419;-83
2022/07/23 10:53:11;;;;;;;10.40;4.82;;;;;;;21.09;66.79;98185.06;5012204;28;20405;-82
2022/07/23 10:55:49;;;;;;;8.00;4.90;;;;;;;21.14;68.31;98193.03;5021023;28;20770;-82
2022/07/23 10:58:23;;;;;;;8.65;5.10;;;;;;;21.10;69.19;98186.69;5013124;28;20409;-82
2022/07/23 11:00:51;;;;;;;8.27;5.10;;;;;;;21.10;68.93;98183.91;4997779;28;20902;-83
2022/07/23 11:03:37;;;;;;;9.57;5.00;;;;;;;21.16;67.74;98190.72;5015162;28;20408;-82
2022/07/23 11:06:07;;;;;;;7.82;4.93;;;;;;;21.16;67.02;98190.72;5015391;28;20423;-83
2022/07/23 11:08:35;;;;;;;8.60;4.70;;;;;;;21.12;68.33;98190.66;5023626;28;20446;-82
2022/07/23 11:11:12;;;;;;;8.48;5.05;;;;;;;21.18;68.46;98193.88;5004207;28;20779;-85
2022/07/23 11:13:48;;;;;;;10.10;5.45;;;;;;;21.17;69.96;98193.09;5007656;28;20435;-86
2022/07/23 11:16:25;;;;;;;9.15;5.38;;;;;;;21.26;70.14;98201.09;5008844;28;20486;-83
2022/07/23 11:19:14;;;;;;;9.60;5.45;;;;;;;21.36;69.72;98206.00;4997615;28;20412;-83
2022/07/23 11:21:48;;;;;;;10.50;5.40;;;;;;;21.42;67.94;98204.50;5014875;28;20420;-82
2022/07/23 11:24:24;;;;;;;8.13;5.00;;;;;;;21.60;66.86;98187.31;5016340;28;20414;-82
2022/07/23 11:27:01;;;;;;;10.73;5.45;;;;;;;21.65;67.26;98182.25;5015653;28;20439;-83
2022/07/23 11:29:43;;;;;;;8.57;5.28;;;;;;;21.74;66.82;98178.41;5020647;28;20403;-83
2022/07/23 11:32:42;;;;;;;8.32;4.95;;;;;;;21.74;66.02;98181.97;5003966;28;20409;-83
2022/07/23 11:35:27;;;;;;;9.10;5.30;;;;;;;21.80;66.71;98180.44;5019552;28;20423;-82
2022/07/23 11:38:04;;;;;;;8.10;4.30;;;;;;;21.84;66.56;98181.28;4987031;28;20910;-83
2022/07/23 11:40:33;;;;;;;7.70;4.88;;;;;;;21.84;66.11;98164.69;5009569;28;20425;-83
2022/07/23 11:43:08;;;;;;;9.13;5.80;;;;;;;21.96;66.12;98166.38;5024940;28;20462;-82
2022/07/23 11:45:39;;;;;;;11.93;7.05;;;;;;;21.98;67.45;98159.28;5019995;28;20418;-82
2022/07/23 11:48:09;;;;;;;8.55;4.95;;;;;;;22.08;64.98;98162.53;5010620;28;20410;-82
2022/07/23 11:50:37;;;;;;;8.98;5.45;;;;;;;22.15;65.54;98162.63;5021103;28;20829;-83
2022/07/23 11:53:06;;;;;;;9.63;5.90;;;;;;;22.26;65.64;98151.63;5003073;28;20398;-83
2022/07/23 11:55:34;;;;;;;9.43;4.90;;;;;;;22.35;64.53;98161.22;5007408;28;20433;-83